SWH100 LSZH-KJFK
Flight info
| Callsign | SWH100 |
|---|---|
| Flight time | N/A |
| Altitude | 34000 |
| Route | VEBIT T10 TORPA DCT REKLA DCT RLP DCT ROTSI DCT KOTUN DCT AMAXA DCT VESAN DCT RATUK DCT SOVAT L613 SANDY DCT OKSAW DCT TEWXI DCT VATRY DCT VENER/M085F340 DCT 5430N02000W 5430N03000W 54N040W 53N050W DCT RIKAL/N0487F340 N572A TOPPS DCT ENE PARCH4 |
| Aircraft | B742/H-SDFHIRWXY/L |
Departure
| Time | 2026-05-06 09:12 |
|---|---|
| Airport | Zürich Airport (LSZH) |
Arrival
| Time | N/A |
|---|---|
| Airport | John F. Kennedy International Airport (KJFK) |
| Time | Latitude | Longitude | Altitude | Speed | Heading |
|---|---|---|---|---|---|
| 2026-05-06 08:42 | 47.46032 | 8.55578 | 1385 ft | 0 kts | 6° |
| 2026-05-06 08:55 | 47.46023 | 8.55579 | 1385 ft | 2 kts | 349° |
| 2026-05-06 08:55 | 47.46008 | 8.55583 | 1385 ft | 2 kts | 347° |
| 2026-05-06 08:56 | 47.45994 | 8.55590 | 1385 ft | 2 kts | 333° |
| 2026-05-06 08:56 | 47.45981 | 8.55601 | 1385 ft | 2 kts | 321° |
| 2026-05-06 08:56 | 47.45971 | 8.55616 | 1385 ft | 2 kts | 309° |
| 2026-05-06 08:56 | 47.45963 | 8.55633 | 1385 ft | 2 kts | 298° |
| 2026-05-06 08:57 | 47.45957 | 8.55653 | 1385 ft | 2 kts | 286° |
| 2026-05-06 08:57 | 47.45955 | 8.55669 | 1385 ft | 0 kts | 277° |
| 2026-05-06 08:57 | 47.45953 | 8.55673 | 1385 ft | 0 kts | 281° |
| 2026-05-06 09:00 | 47.45954 | 8.55670 | 1385 ft | 1 kts | 279° |
| 2026-05-06 09:00 | 47.45957 | 8.55639 | 1385 ft | 5 kts | 279° |
| 2026-05-06 09:01 | 47.45960 | 8.55580 | 1385 ft | 5 kts | 275° |
| 2026-05-06 09:01 | 47.45963 | 8.55536 | 1385 ft | 3 kts | 275° |
| 2026-05-06 09:01 | 47.45967 | 8.55467 | 1385 ft | 9 kts | 276° |
| 2026-05-06 09:01 | 47.45973 | 8.55377 | 1385 ft | 8 kts | 276° |
| 2026-05-06 09:02 | 47.45978 | 8.55303 | 1385 ft | 6 kts | 276° |
| 2026-05-06 09:02 | 47.45982 | 8.55245 | 1385 ft | 5 kts | 276° |
| 2026-05-06 09:02 | 47.45987 | 8.55183 | 1385 ft | 9 kts | 276° |
| 2026-05-06 09:02 | 47.45996 | 8.55054 | 1385 ft | 13 kts | 276° |
| 2026-05-06 09:03 | 47.46022 | 8.54935 | 1384 ft | 12 kts | 316° |
| 2026-05-06 09:03 | 47.46092 | 8.54885 | 1383 ft | 11 kts | 339° |
| 2026-05-06 09:03 | 47.46164 | 8.54843 | 1382 ft | 10 kts | 336° |
| 2026-05-06 09:03 | 47.46236 | 8.54795 | 1383 ft | 12 kts | 336° |
| 2026-05-06 09:04 | 47.46316 | 8.54742 | 1383 ft | 14 kts | 336° |
| 2026-05-06 09:04 | 47.46407 | 8.54679 | 1382 ft | 14 kts | 335° |
| 2026-05-06 09:04 | 47.46492 | 8.54619 | 1382 ft | 12 kts | 335° |
| 2026-05-06 09:04 | 47.46563 | 8.54569 | 1382 ft | 11 kts | 335° |
| 2026-05-06 09:05 | 47.46626 | 8.54525 | 1382 ft | 9 kts | 335° |
| 2026-05-06 09:05 | 47.46685 | 8.54484 | 1382 ft | 9 kts | 335° |
| 2026-05-06 09:05 | 47.46733 | 8.54450 | 1382 ft | 11 kts | 335° |
| 2026-05-06 09:05 | 47.46816 | 8.54402 | 1382 ft | 13 kts | 337° |
| 2026-05-06 09:06 | 47.46898 | 8.54346 | 1382 ft | 13 kts | 335° |
| 2026-05-06 09:06 | 47.46970 | 8.54296 | 1382 ft | 12 kts | 335° |
| 2026-05-06 09:06 | 47.47043 | 8.54247 | 1382 ft | 11 kts | 336° |
| 2026-05-06 09:06 | 47.47104 | 8.54207 | 1382 ft | 9 kts | 336° |
| 2026-05-06 09:07 | 47.47175 | 8.54160 | 1382 ft | 13 kts | 335° |
| 2026-05-06 09:07 | 47.47265 | 8.54096 | 1382 ft | 13 kts | 334° |
| 2026-05-06 09:07 | 47.47352 | 8.54034 | 1382 ft | 11 kts | 335° |
| 2026-05-06 09:07 | 47.47418 | 8.53988 | 1383 ft | 9 kts | 336° |
| 2026-05-06 09:08 | 47.47486 | 8.53943 | 1385 ft | 12 kts | 336° |
| 2026-05-06 09:08 | 47.47560 | 8.53893 | 1386 ft | 10 kts | 336° |
| 2026-05-06 09:08 | 47.47595 | 8.53839 | 1387 ft | 5 kts | 287° |
| 2026-05-06 09:08 | 47.47598 | 8.53799 | 1388 ft | 1 kts | 271° |
| 2026-05-06 09:09 | 47.47597 | 8.53771 | 1388 ft | 4 kts | 263° |
| 2026-05-06 09:09 | 47.47586 | 8.53713 | 1389 ft | 5 kts | 248° |
| 2026-05-06 09:09 | 47.47576 | 8.53679 | 1389 ft | 3 kts | 247° |
| 2026-05-06 09:09 | 47.47568 | 8.53652 | 1390 ft | 4 kts | 247° |
| 2026-05-06 09:10 | 47.47559 | 8.53623 | 1390 ft | 4 kts | 244° |
| 2026-05-06 09:10 | 47.47555 | 8.53616 | 1390 ft | 0 kts | 224° |
| 2026-05-06 09:10 | 47.47548 | 8.53609 | 1390 ft | 3 kts | 210° |
| 2026-05-06 09:10 | 47.47535 | 8.53608 | 1390 ft | 1 kts | 161° |
| 2026-05-06 09:11 | 47.47499 | 8.53639 | 1389 ft | 5 kts | 156° |
| 2026-05-06 09:11 | 47.47498 | 8.53640 | 1389 ft | 0 kts | 156° |
| 2026-05-06 09:11 | 47.47497 | 8.53640 | 1389 ft | 0 kts | 156° |
| 2026-05-06 09:11 | 47.47381 | 8.53717 | 1386 ft | 52 kts | 156° |
| 2026-05-06 09:12 | 47.46835 | 8.54089 | 1382 ft | 122 kts | 155° |
| 2026-05-06 09:12 | 47.45947 | 8.54716 | 1386 ft | 174 kts | 155° |
| 2026-05-06 09:12 | 47.44838 | 8.55498 | 1902 ft | 176 kts | 155° |
| 2026-05-06 09:12 | 47.43787 | 8.56323 | 2469 ft | 174 kts | 136° |
| 2026-05-06 09:13 | 47.43363 | 8.57862 | 2865 ft | 171 kts | 71° |
| 2026-05-06 09:13 | 47.44109 | 8.59178 | 3069 ft | 178 kts | 18° |
| 2026-05-06 09:13 | 47.45272 | 8.59069 | 3398 ft | 174 kts | 323° |
| 2026-05-06 09:13 | 47.45870 | 8.57580 | 3600 ft | 185 kts | 277° |
| 2026-05-06 09:14 | 47.45634 | 8.55718 | 3918 ft | 196 kts | 241° |
| 2026-05-06 09:14 | 47.44707 | 8.54162 | 4168 ft | 209 kts | 231° |
| 2026-05-06 09:14 | 47.44147 | 8.52275 | 4469 ft | 207 kts | 265° |
| 2026-05-06 09:14 | 47.43890 | 8.50176 | 4769 ft | 215 kts | 257° |
| 2026-05-06 09:15 | 47.43369 | 8.48052 | 4969 ft | 230 kts | 250° |
| 2026-05-06 09:15 | 47.42698 | 8.45861 | 5182 ft | 244 kts | 248° |
| 2026-05-06 09:15 | 47.41940 | 8.43570 | 5459 ft | 255 kts | 247° |
| 2026-05-06 09:15 | 47.41167 | 8.41297 | 5697 ft | 265 kts | 246° |
| 2026-05-06 09:16 | 47.40540 | 8.39469 | 5907 ft | 269 kts | 246° |
| 2026-05-06 09:16 | 47.39326 | 8.35939 | 6308 ft | 269 kts | 247° |
| 2026-05-06 09:16 | 47.38519 | 8.33612 | 6573 ft | 269 kts | 245° |
| 2026-05-06 09:16 | 47.37636 | 8.31128 | 6857 ft | 269 kts | 245° |
| 2026-05-06 09:17 | 47.36774 | 8.28714 | 7137 ft | 270 kts | 245° |
| 2026-05-06 09:17 | 47.36039 | 8.26653 | 7529 ft | 267 kts | 246° |
| 2026-05-06 09:17 | 47.35102 | 8.24024 | 8025 ft | 268 kts | 246° |
| 2026-05-06 09:17 | 47.34246 | 8.21614 | 8476 ft | 268 kts | 246° |
| 2026-05-06 09:18 | 47.33385 | 8.19192 | 8927 ft | 267 kts | 246° |
| 2026-05-06 09:18 | 47.32530 | 8.16789 | 9380 ft | 267 kts | 246° |
| 2026-05-06 09:18 | 47.31701 | 8.14458 | 9819 ft | 267 kts | 246° |
| 2026-05-06 09:18 | 47.30846 | 8.12053 | 10272 ft | 274 kts | 245° |
| 2026-05-06 09:19 | 47.30085 | 8.09909 | 10662 ft | 283 kts | 245° |
| 2026-05-06 09:19 | 47.29084 | 8.07089 | 11157 ft | 295 kts | 245° |
| 2026-05-06 09:19 | 47.28438 | 8.05271 | 11465 ft | 302 kts | 245° |
| 2026-05-06 09:19 | 47.27541 | 8.02535 | 11904 ft | 310 kts | 252° |
| 2026-05-06 09:20 | 47.27140 | 7.99403 | 12362 ft | 318 kts | 268° |
| 2026-05-06 09:20 | 47.27245 | 7.96115 | 12822 ft | 328 kts | 275° |
| 2026-05-06 09:20 | 47.27532 | 7.92737 | 13280 ft | 337 kts | 276° |
| 2026-05-06 09:20 | 47.27869 | 7.89298 | 13735 ft | 345 kts | 277° |
| 2026-05-06 09:21 | 47.28219 | 7.85770 | 14192 ft | 352 kts | 277° |
| 2026-05-06 09:21 | 47.28571 | 7.82169 | 14647 ft | 360 kts | 277° |
| 2026-05-06 09:21 | 47.28925 | 7.78516 | 15101 ft | 366 kts | 277° |
| 2026-05-06 09:21 | 47.29282 | 7.74808 | 15553 ft | 372 kts | 277° |
| 2026-05-06 09:22 | 47.29645 | 7.71025 | 16007 ft | 378 kts | 277° |
| 2026-05-06 09:22 | 47.29988 | 7.67437 | 16432 ft | 382 kts | 277° |
| 2026-05-06 09:22 | 47.30405 | 7.63574 | 16883 ft | 388 kts | 281° |